Gentle Seas — D5EU2 — position and weather

sailwx.info

Track history (hours):
 
Tides and Currents Weather Stations Pressure Air Temp Water Temp Dewpoint Dewpoint Depression Visibility Wind Speed Wind Dir Waves Ship Positions

Gentle Seas

Last reported at 2018-Feb-03 15:56 UTC. Time now 2018-Feb-23 08:42 UTC.
Position N 01°17' E 103°22'.
Warning: this ship's position is 19 days out of date.

Length 199 m; draft 13.2 m.

Type: Cargo ship. MMSI: 636016161.

Date/timePositionNaut miles runAvg speedWind from/ knotsBaromVisibWave heightAir tempDewpointWater temp
2018-Feb-03 15:56N 01°17' E 103°22'510.6
2018-Feb-03 15:30N 01°14' E 103°26'611.6
2018-Feb-03 14:59N 01°13' E 103°31'611.9
2018-Feb-03 14:30N 01°12' E 103°37'611.3
2018-Feb-03 14:00N 01°09' E 103°42'5 9.5
2018-Feb-03 13:30N 01°10' E 103°47'4 8.3
2018-Feb-03 13:00N 01°12' E 103°51'5 9.7
2018-Feb-03 12:30N 01°14' E 103°55'2 4.7
2018-Feb-03 12:00N 01°16' E 103°57'1 0.5
2018-Feb-03 08:58N 01°17' E 103°57'0 0.1
2018-Feb-03 08:01N 01°17' E 103°57'0 0.1
2018-Feb-03 07:55N 01°17' E 103°57'0 0.1
2018-Feb-03 03:25N 01°17' E 103°57'0 0.0
2018-Feb-03 00:31N 01°17' E 103°57'0 0.1
2018-Feb-03 00:13N 01°17' E 103°57'0 0.2
2018-Feb-02 23:55N 01°17' E 103°57'0 0.3
2018-Feb-02 23:30N 01°17' E 103°57'2 4.5
2018-Feb-02 23:00N 01°16' E 103°59'2 4.0
2018-Feb-02 22:30N 01°16' E 104°01'4 5.9
2018-Feb-02 21:51N 01°17' E 104°05'3 6.1
2018-Feb-02 21:17N 01°17' E 104°09'  
Track history (hours):
 
Tides and Currents Weather Stations Pressure Air Temp Water Temp Dewpoint Dewpoint Depression Visibility Wind Speed Wind Dir Waves Ship Positions

Gentle Seas

Last reported at 2018-Feb-03 15:56 UTC. Time now 2018-Feb-23 08:42 UTC.
Position N 01°17' E 103°22'.
Warning: this ship's position is 19 days out of date.

Length 199 m; draft 13.2 m.

Type: Cargo ship. MMSI: 636016161.

Date/timePositionNaut miles runAvg speedWind from/ knotsBaromVisibWave heightAir tempDewpointWater temp
2018-Feb-03 15:56N 01°17' E 103°22'510.6
2018-Feb-03 15:30N 01°14' E 103°26'611.6
2018-Feb-03 14:59N 01°13' E 103°31'611.9
2018-Feb-03 14:30N 01°12' E 103°37'611.3
2018-Feb-03 14:00N 01°09' E 103°42'5 9.5
2018-Feb-03 13:30N 01°10' E 103°47'4 8.3
2018-Feb-03 13:00N 01°12' E 103°51'5 9.7
2018-Feb-03 12:30N 01°14' E 103°55'2 4.7
2018-Feb-03 12:00N 01°16' E 103°57'1 0.5
2018-Feb-03 08:58N 01°17' E 103°57'0 0.1
2018-Feb-03 08:01N 01°17' E 103°57'0 0.1
2018-Feb-03 07:55N 01°17' E 103°57'0 0.1
2018-Feb-03 03:25N 01°17' E 103°57'0 0.0
2018-Feb-03 00:31N 01°17' E 103°57'0 0.1
2018-Feb-03 00:13N 01°17' E 103°57'0 0.2
2018-Feb-02 23:55N 01°17' E 103°57'0 0.3
2018-Feb-02 23:30N 01°17' E 103°57'2 4.5
2018-Feb-02 23:00N 01°16' E 103°59'2 4.0
2018-Feb-02 22:30N 01°16' E 104°01'4 5.9
2018-Feb-02 21:51N 01°17' E 104°05'3 6.1
2018-Feb-02 21:17N 01°17' E 104°09'  

Dump ship's entire track history